sensor_id;sensor_type;location;lat;lon;timestamp;pressure;altitude;pressure_sealevel;temperature;humidity
49311;BME280;35177;45.900;5.946;2022-07-12T00:01:17;97901.66;;;16.20;100.00
49311;BME280;35177;45.900;5.946;2022-07-12T00:03:43;97898.84;;;16.08;100.00
49311;BME280;35177;45.900;5.946;2022-07-12T00:06:08;97903.19;;;16.18;100.00
49311;BME280;35177;45.900;5.946;2022-07-12T00:08:34;97896.19;;;16.24;100.00
49311;BME280;35177;45.900;5.946;2022-07-12T00:10:59;97902.16;;;16.22;100.00
49311;BME280;35177;45.900;5.946;2022-07-12T00:13:25;97909.09;;;16.04;100.00
49311;BME280;35177;45.900;5.946;2022-07-12T00:15:50;97906.13;;;16.21;100.00
49311;BME280;35177;45.900;5.946;2022-07-12T00:18:16;97909.22;;;15.65;100.00
49311;BME280;35177;45.900;5.946;2022-07-12T00:20:41;97906.34;;;15.74;100.00
49311;BME280;35177;45.900;5.946;2022-07-12T00:23:07;97912.78;;;15.74;100.00
49311;BME280;35177;45.900;5.946;2022-07-12T00:25:32;97912.66;;;15.71;100.00
49311;BME280;35177;45.900;5.946;2022-07-12T00:27:58;97913.53;;;15.63;100.00
49311;BME280;35177;45.900;5.946;2022-07-12T00:30:24;97913.38;;;15.38;100.00
49311;BME280;35177;45.900;5.946;2022-07-12T00:32:49;97918.69;;;15.52;100.00
49311;BME280;35177;45.900;5.946;2022-07-12T00:35:15;97913.16;;;15.22;100.00
49311;BME280;35177;45.900;5.946;2022-07-12T00:37:41;97926.06;;;15.35;100.00
49311;BME280;35177;45.900;5.946;2022-07-12T00:40:08;97924.06;;;15.36;100.00
49311;BME280;35177;45.900;5.946;2022-07-12T00:42:38;97916.78;;;15.43;100.00
49311;BME280;35177;45.900;5.946;2022-07-12T00:45:07;97922.47;;;15.56;100.00
49311;BME280;35177;45.900;5.946;2022-07-12T00:50:10;97922.47;;;15.05;100.00
49311;BME280;35177;45.900;5.946;2022-07-12T00:52:37;97926.72;;;15.32;100.00
49311;BME280;35177;45.900;5.946;2022-07-12T00:55:05;97923.66;;;15.25;100.00
49311;BME280;35177;45.900;5.946;2022-07-12T00:57:32;97918.53;;;15.27;100.00
49311;BME280;35177;45.900;5.946;2022-07-12T00:59:57;97918.75;;;15.22;100.00
49311;BME280;35177;45.900;5.946;2022-07-12T01:02:23;97924.72;;;15.12;100.00
49311;BME280;35177;45.900;5.946;2022-07-12T01:04:50;97919.41;;;14.89;100.00
49311;BME280;35177;45.900;5.946;2022-07-12T01:07:16;97921.81;;;14.99;100.00
49311;BME280;35177;45.900;5.946;2022-07-12T01:09:43;97923.31;;;14.97;100.00
49311;BME280;35177;45.900;5.946;2022-07-12T01:12:09;97937.22;;;14.75;100.00
49311;BME280;35177;45.900;5.946;2022-07-12T01:14:35;97926.16;;;14.88;100.00
49311;BME280;35177;45.900;5.946;2022-07-12T01:17:02;97930.06;;;14.96;100.00
49311;BME280;35177;45.900;5.946;2022-07-12T01:19:28;97927.38;;;14.69;100.00
49311;BME280;35177;45.900;5.946;2022-07-12T01:21:57;97933.84;;;15.00;100.00
49311;BME280;35177;45.900;5.946;2022-07-12T01:24:24;97928.69;;;14.63;100.00
49311;BME280;35177;45.900;5.946;2022-07-12T01:26:50;97928.72;;;15.02;100.00
49311;BME280;35177;45.900;5.946;2022-07-12T01:29:16;97931.50;;;15.02;100.00
49311;BME280;35177;45.900;5.946;2022-07-12T01:31:42;97933.88;;;14.91;100.00
49311;BME280;35177;45.900;5.946;2022-07-12T01:34:08;97932.16;;;15.07;100.00
49311;BME280;35177;45.900;5.946;2022-07-12T01:36:34;97934.78;;;15.04;100.00
49311;BME280;35177;45.900;5.946;2022-07-12T01:39:03;97933.50;;;15.01;100.00
49311;BME280;35177;45.900;5.946;2022-07-12T01:41:31;97946.41;;;14.76;100.00
49311;BME280;35177;45.900;5.946;2022-07-12T01:43:57;97944.53;;;14.41;100.00
49311;BME280;35177;45.900;5.946;2022-07-12T01:46:23;97945.53;;;14.45;100.00
49311;BME280;35177;45.900;5.946;2022-07-12T01:48:48;97943.19;;;14.56;100.00
49311;BME280;35177;45.900;5.946;2022-07-12T01:51:14;97939.78;;;14.42;100.00
49311;BME280;35177;45.900;5.946;2022-07-12T01:53:39;97943.84;;;14.53;100.00
49311;BME280;35177;45.900;5.946;2022-07-12T01:56:05;97941.75;;;14.33;100.00
49311;BME280;35177;45.900;5.946;2022-07-12T01:58:31;97943.75;;;14.23;100.00
49311;BME280;35177;45.900;5.946;2022-07-12T02:00:57;97947.69;;;14.31;100.00
49311;BME280;35177;45.900;5.946;2022-07-12T02:03:23;97946.22;;;14.25;100.00
49311;BME280;35177;45.900;5.946;2022-07-12T02:05:49;97952.47;;;14.13;100.00
49311;BME280;35177;45.900;5.946;2022-07-12T02:08:14;97951.78;;;14.34;100.00
49311;BME280;35177;45.900;5.946;2022-07-12T02:10:41;97946.69;;;14.18;100.00
49311;BME280;35177;45.900;5.946;2022-07-12T02:13:07;97950.31;;;14.27;100.00
49311;BME280;35177;45.900;5.946;2022-07-12T02:15:33;97940.63;;;14.25;100.00
49311;BME280;35177;45.900;5.946;2022-07-12T02:17:58;97945.09;;;13.73;100.00
49311;BME280;35177;45.900;5.946;2022-07-12T02:20:24;97948.41;;;13.84;100.00
49311;BME280;35177;45.900;5.946;2022-07-12T02:22:50;97953.00;;;13.89;100.00
49311;BME280;35177;45.900;5.946;2022-07-12T02:25:15;97953.44;;;14.08;100.00
49311;BME280;35177;45.900;5.946;2022-07-12T02:27:42;97953.94;;;13.40;100.00
49311;BME280;35177;45.900;5.946;2022-07-12T02:30:09;97959.22;;;13.59;100.00
49311;BME280;35177;45.900;5.946;2022-07-12T02:32:35;97954.94;;;13.53;100.00
49311;BME280;35177;45.900;5.946;2022-07-12T02:35:02;97948.06;;;13.77;100.00
49311;BME280;35177;45.900;5.946;2022-07-12T02:37:28;97952.00;;;13.76;100.00
49311;BME280;35177;45.900;5.946;2022-07-12T02:39:53;97960.38;;;13.85;100.00
49311;BME280;35177;45.900;5.946;2022-07-12T02:42:38;97949.88;;;13.81;100.00
49311;BME280;35177;45.900;5.946;2022-07-12T02:45:05;97962.66;;;13.65;100.00
49311;BME280;35177;45.900;5.946;2022-07-12T02:47:31;97961.84;;;13.73;100.00
49311;BME280;35177;45.900;5.946;2022-07-12T02:49:58;97967.25;;;13.70;100.00
49311;BME280;35177;45.900;5.946;2022-07-12T02:52:24;97968.72;;;13.76;100.00
49311;BME280;35177;45.900;5.946;2022-07-12T02:54:50;97972.63;;;13.40;100.00
49311;BME280;35177;45.900;5.946;2022-07-12T02:57:15;97969.34;;;13.46;100.00
49311;BME280;35177;45.900;5.946;2022-07-12T02:59:41;97968.84;;;13.44;100.00
49311;BME280;35177;45.900;5.946;2022-07-12T03:02:06;97965.94;;;13.49;100.00
49311;BME280;35177;45.900;5.946;2022-07-12T03:04:32;97973.47;;;13.58;100.00
49311;BME280;35177;45.900;5.946;2022-07-12T03:06:57;97972.66;;;13.57;100.00
49311;BME280;35177;45.900;5.946;2022-07-12T03:09:22;97972.81;;;13.03;100.00
49311;BME280;35177;45.900;5.946;2022-07-12T03:11:48;97970.09;;;13.29;100.00
49311;BME280;35177;45.900;5.946;2022-07-12T03:14:13;97975.66;;;13.21;100.00
49311;BME280;35177;45.900;5.946;2022-07-12T03:16:39;97968.16;;;13.30;100.00
49311;BME280;35177;45.900;5.946;2022-07-12T03:19:05;97980.78;;;13.27;100.00
49311;BME280;35177;45.900;5.946;2022-07-12T03:21:30;97984.59;;;13.40;100.00
49311;BME280;35177;45.900;5.946;2022-07-12T03:23:56;97984.78;;;13.53;100.00
49311;BME280;35177;45.900;5.946;2022-07-12T03:26:21;97975.16;;;13.85;100.00
49311;BME280;35177;45.900;5.946;2022-07-12T03:28:47;97989.91;;;13.86;100.00
49311;BME280;35177;45.900;5.946;2022-07-12T03:31:12;97998.31;;;13.37;100.00
49311;BME280;35177;45.900;5.946;2022-07-12T03:33:38;98002.91;;;13.24;100.00
49311;BME280;35177;45.900;5.946;2022-07-12T03:36:04;98000.63;;;13.34;100.00
49311;BME280;35177;45.900;5.946;2022-07-12T03:38:32;98002.03;;;13.14;100.00
49311;BME280;35177;45.900;5.946;2022-07-12T03:40:57;98014.16;;;13.18;100.00
49311;BME280;35177;45.900;5.946;2022-07-12T03:43:23;98011.59;;;13.31;100.00
49311;BME280;35177;45.900;5.946;2022-07-12T03:45:48;98020.22;;;13.12;100.00
49311;BME280;35177;45.900;5.946;2022-07-12T03:48:14;98025.25;;;13.01;100.00
49311;BME280;35177;45.900;5.946;2022-07-12T03:50:39;98024.63;;;13.04;100.00
49311;BME280;35177;45.900;5.946;2022-07-12T03:53:05;98023.56;;;13.31;100.00
49311;BME280;35177;45.900;5.946;2022-07-12T03:55:30;98031.69;;;13.10;100.00
49311;BME280;35177;45.900;5.946;2022-07-12T03:57:56;98025.41;;;12.96;100.00
49311;BME280;35177;45.900;5.946;2022-07-12T04:00:22;98022.63;;;12.96;100.00
49311;BME280;35177;45.900;5.946;2022-07-12T04:02:47;98012.94;;;12.93;100.00
49311;BME280;35177;45.900;5.946;2022-07-12T04:05:13;98012.03;;;13.15;100.00
49311;BME280;35177;45.900;5.946;2022-07-12T04:07:39;98018.78;;;13.23;100.00
49311;BME280;35177;45.900;5.946;2022-07-12T04:10:06;98020.75;;;13.23;100.00
49311;BME280;35177;45.900;5.946;2022-07-12T04:12:32;98026.19;;;13.28;100.00
49311;BME280;35177;45.900;5.946;2022-07-12T04:14:58;98029.06;;;13.54;100.00
49311;BME280;35177;45.900;5.946;2022-07-12T04:17:23;98029.41;;;13.53;100.00
49311;BME280;35177;45.900;5.946;2022-07-12T04:19:49;98021.34;;;13.42;100.00
49311;BME280;35177;45.900;5.946;2022-07-12T04:22:14;98026.94;;;13.42;100.00
49311;BME280;35177;45.900;5.946;2022-07-12T04:24:40;98038.88;;;13.43;100.00
49311;BME280;35177;45.900;5.946;2022-07-12T04:27:05;98032.69;;;13.55;100.00
49311;BME280;35177;45.900;5.946;2022-07-12T04:29:30;98029.91;;;13.55;100.00
49311;BME280;35177;45.900;5.946;2022-07-12T04:31:56;98032.19;;;13.53;100.00
49311;BME280;35177;45.900;5.946;2022-07-12T04:34:22;98025.63;;;13.48;100.00
49311;BME280;35177;45.900;5.946;2022-07-12T04:36:47;98030.56;;;13.60;100.00
49311;BME280;35177;45.900;5.946;2022-07-12T04:39:14;98023.69;;;13.66;100.00
49311;BME280;35177;45.900;5.946;2022-07-12T04:41:40;98029.31;;;13.93;100.00
49311;BME280;35177;45.900;5.946;2022-07-12T04:44:06;98024.03;;;14.35;100.00
49311;BME280;35177;45.900;5.946;2022-07-12T04:46:32;98032.59;;;14.30;100.00
49311;BME280;35177;45.900;5.946;2022-07-12T04:48:58;98042.06;;;14.82;100.00
49311;BME280;35177;45.900;5.946;2022-07-12T04:51:23;98039.63;;;14.80;100.00
49311;BME280;35177;45.900;5.946;2022-07-12T04:53:49;98041.41;;;15.32;100.00
49311;BME280;35177;45.900;5.946;2022-07-12T04:56:14;98034.41;;;15.77;100.00
49311;BME280;35177;45.900;5.946;2022-07-12T04:58:40;98048.75;;;16.05;100.00
49311;BME280;35177;45.900;5.946;2022-07-12T05:01:05;98045.44;;;16.03;100.00
49311;BME280;35177;45.900;5.946;2022-07-12T05:03:32;98048.00;;;16.17;100.00
49311;BME280;35177;45.900;5.946;2022-07-12T05:05:58;98045.06;;;16.14;100.00
49311;BME280;35177;45.900;5.946;2022-07-12T05:08:23;98050.50;;;16.52;100.00
49311;BME280;35177;45.900;5.946;2022-07-12T05:10:49;98045.16;;;16.60;100.00
49311;BME280;35177;45.900;5.946;2022-07-12T05:13:14;98042.06;;;15.98;100.00
49311;BME280;35177;45.900;5.946;2022-07-12T05:15:40;98042.78;;;15.86;100.00
49311;BME280;35177;45.900;5.946;2022-07-12T05:18:05;98050.16;;;15.90;100.00
49311;BME280;35177;45.900;5.946;2022-07-12T05:20:31;98041.69;;;15.69;100.00
49311;BME280;35177;45.900;5.946;2022-07-12T05:22:56;98044.28;;;15.83;100.00
49311;BME280;35177;45.900;5.946;2022-07-12T05:25:22;98045.13;;;15.75;100.00
49311;BME280;35177;45.900;5.946;2022-07-12T05:27:48;98047.41;;;15.82;100.00
49311;BME280;35177;45.900;5.946;2022-07-12T05:30:13;98040.19;;;16.02;100.00
49311;BME280;35177;45.900;5.946;2022-07-12T05:32:39;98045.59;;;16.49;100.00
49311;BME280;35177;45.900;5.946;2022-07-12T05:35:05;98038.38;;;16.94;100.00
49311;BME280;35177;45.900;5.946;2022-07-12T05:37:30;98045.31;;;17.22;100.00
49311;BME280;35177;45.900;5.946;2022-07-12T05:39:56;98047.69;;;17.44;100.00
49311;BME280;35177;45.900;5.946;2022-07-12T05:42:21;98051.66;;;17.43;100.00
49311;BME280;35177;45.900;5.946;2022-07-12T05:44:47;98046.88;;;17.69;100.00
49311;BME280;35177;45.900;5.946;2022-07-12T05:47:12;98045.00;;;17.48;100.00
49311;BME280;35177;45.900;5.946;2022-07-12T05:49:38;98037.63;;;17.43;100.00
49311;BME280;35177;45.900;5.946;2022-07-12T05:52:04;98043.44;;;17.01;100.00
49311;BME280;35177;45.900;5.946;2022-07-12T05:54:48;98041.31;;;16.98;100.00
49311;BME280;35177;45.900;5.946;2022-07-12T05:57:15;98042.31;;;17.76;100.00
49311;BME280;35177;45.900;5.946;2022-07-12T05:59:41;98049.41;;;18.11;100.00
49311;BME280;35177;45.900;5.946;2022-07-12T06:02:06;98049.66;;;17.93;100.00
49311;BME280;35177;45.900;5.946;2022-07-12T06:04:32;98053.66;;;18.05;100.00
49311;BME280;35177;45.900;5.946;2022-07-12T06:06:57;98056.09;;;18.06;100.00
49311;BME280;35177;45.900;5.946;2022-07-12T06:09:23;98047.41;;;18.24;100.00
49311;BME280;35177;45.900;5.946;2022-07-12T06:11:48;98063.66;;;18.30;100.00
49311;BME280;35177;45.900;5.946;2022-07-12T06:14:14;98059.66;;;18.32;100.00
49311;BME280;35177;45.900;5.946;2022-07-12T06:16:40;98058.56;;;18.49;100.00
49311;BME280;35177;45.900;5.946;2022-07-12T06:19:05;98053.97;;;18.56;100.00
49311;BME280;35177;45.900;5.946;2022-07-12T06:21:31;98055.59;;;18.57;100.00
49311;BME280;35177;45.900;5.946;2022-07-12T06:23:56;98050.13;;;18.77;100.00
49311;BME280;35177;45.900;5.946;2022-07-12T06:26:21;98063.00;;;18.78;100.00
49311;BME280;35177;45.900;5.946;2022-07-12T06:28:47;98057.94;;;18.84;100.00
49311;BME280;35177;45.900;5.946;2022-07-12T06:31:12;98051.25;;;18.88;100.00
49311;BME280;35177;45.900;5.946;2022-07-12T06:33:38;98059.56;;;19.13;100.00
49311;BME280;35177;45.900;5.946;2022-07-12T06:36:04;98066.75;;;19.26;100.00
49311;BME280;35177;45.900;5.946;2022-07-12T06:38:29;98059.84;;;19.24;100.00
49311;BME280;35177;45.900;5.946;2022-07-12T06:40:55;98057.50;;;19.26;100.00
49311;BME280;35177;45.900;5.946;2022-07-12T06:43:20;98054.31;;;19.27;100.00
49311;BME280;35177;45.900;5.946;2022-07-12T06:45:46;98057.94;;;19.28;100.00
49311;BME280;35177;45.900;5.946;2022-07-12T06:48:11;98055.50;;;19.26;100.00
49311;BME280;35177;45.900;5.946;2022-07-12T06:50:37;98053.84;;;19.41;100.00
49311;BME280;35177;45.900;5.946;2022-07-12T06:53:02;98052.38;;;19.80;100.00
49311;BME280;35177;45.900;5.946;2022-07-12T06:55:28;98053.31;;;20.19;100.00
49311;BME280;35177;45.900;5.946;2022-07-12T06:57:54;98061.19;;;20.30;100.00
49311;BME280;35177;45.900;5.946;2022-07-12T07:00:20;98065.59;;;20.47;100.00
49311;BME280;35177;45.900;5.946;2022-07-12T07:02:45;98055.56;;;20.49;100.00
49311;BME280;35177;45.900;5.946;2022-07-12T07:05:11;98048.38;;;20.52;100.00
49311;BME280;35177;45.900;5.946;2022-07-12T07:07:37;98059.00;;;20.59;100.00
49311;BME280;35177;45.900;5.946;2022-07-12T07:10:03;98061.13;;;20.65;100.00
49311;BME280;35177;45.900;5.946;2022-07-12T07:12:28;98059.56;;;20.68;100.00
49311;BME280;35177;45.900;5.946;2022-07-12T07:14:54;98050.47;;;20.75;100.00
49311;BME280;35177;45.900;5.946;2022-07-12T07:17:19;98060.69;;;20.83;100.00
49311;BME280;35177;45.900;5.946;2022-07-12T07:19:45;98055.19;;;20.90;100.00
49311;BME280;35177;45.900;5.946;2022-07-12T07:22:14;98063.00;;;20.97;100.00
49311;BME280;35177;45.900;5.946;2022-07-12T07:24:40;98058.22;;;21.01;100.00
49311;BME280;35177;45.900;5.946;2022-07-12T07:27:06;98060.31;;;21.04;100.00
49311;BME280;35177;45.900;5.946;2022-07-12T07:29:33;98060.75;;;21.06;100.00
49311;BME280;35177;45.900;5.946;2022-07-12T07:32:17;98063.25;;;21.11;100.00
49311;BME280;35177;45.900;5.946;2022-07-12T07:34:42;98064.28;;;21.23;100.00
49311;BME280;35177;45.900;5.946;2022-07-12T07:37:08;98064.28;;;21.23;100.00
49311;BME280;35177;45.900;5.946;2022-07-12T07:39:34;98063.97;;;21.28;100.00
49311;BME280;35177;45.900;5.946;2022-07-12T07:42:00;98060.50;;;21.38;100.00
49311;BME280;35177;45.900;5.946;2022-07-12T07:44:25;98069.44;;;21.40;100.00
49311;BME280;35177;45.900;5.946;2022-07-12T07:46:51;98072.50;;;21.31;100.00
49311;BME280;35177;45.900;5.946;2022-07-12T07:49:16;98073.44;;;21.39;100.00
49311;BME280;35177;45.900;5.946;2022-07-12T07:51:42;98075.06;;;21.40;100.00
49311;BME280;35177;45.900;5.946;2022-07-12T07:54:07;98065.75;;;21.36;98.35
49311;BME280;35177;45.900;5.946;2022-07-12T07:56:33;98074.22;;;21.36;100.00
49311;BME280;35177;45.900;5.946;2022-07-12T07:58:58;98073.19;;;21.48;100.00
49311;BME280;35177;45.900;5.946;2022-07-12T08:01:24;98063.59;;;21.53;100.00
49311;BME280;35177;45.900;5.946;2022-07-12T08:04:11;98066.88;;;21.55;100.00
49311;BME280;35177;45.900;5.946;2022-07-12T08:06:37;98068.63;;;21.63;100.00
49311;BME280;35177;45.900;5.946;2022-07-12T08:09:03;98073.91;;;21.64;100.00
49311;BME280;35177;45.900;5.946;2022-07-12T08:11:29;98073.09;;;21.64;100.00
49311;BME280;35177;45.900;5.946;2022-07-12T08:13:55;98070.25;;;21.64;100.00
49311;BME280;35177;45.900;5.946;2022-07-12T08:16:20;98065.44;;;21.64;100.00
49311;BME280;35177;45.900;5.946;2022-07-12T08:18:46;98065.19;;;21.73;100.00
49311;BME280;35177;45.900;5.946;2022-07-12T08:21:12;98059.19;;;21.78;100.00
49311;BME280;35177;45.900;5.946;2022-07-12T08:23:37;98059.53;;;22.00;100.00
49311;BME280;35177;45.900;5.946;2022-07-12T08:26:03;98064.41;;;22.03;100.00
49311;BME280;35177;45.900;5.946;2022-07-12T08:28:28;98055.56;;;22.05;100.00
49311;BME280;35177;45.900;5.946;2022-07-12T08:30:54;98065.72;;;22.09;100.00
49311;BME280;35177;45.900;5.946;2022-07-12T08:33:20;98063.28;;;22.08;100.00
49311;BME280;35177;45.900;5.946;2022-07-12T08:35:46;98064.13;;;22.12;100.00
49311;BME280;35177;45.900;5.946;2022-07-12T08:38:11;98066.69;;;22.21;96.55
49311;BME280;35177;45.900;5.946;2022-07-12T08:40:38;98069.84;;;22.15;95.69
49311;BME280;35177;45.900;5.946;2022-07-12T08:43:03;98066.38;;;22.26;100.00
49311;BME280;35177;45.900;5.946;2022-07-12T08:45:29;98076.47;;;22.27;100.00
49311;BME280;35177;45.900;5.946;2022-07-12T08:47:54;98065.44;;;22.18;99.38
49311;BME280;35177;45.900;5.946;2022-07-12T08:50:21;98059.50;;;22.27;94.45
49311;BME280;35177;45.900;5.946;2022-07-12T08:52:50;98054.03;;;22.38;97.04
49311;BME280;35177;45.900;5.946;2022-07-12T08:55:24;98059.34;;;22.43;95.05
49311;BME280;35177;45.900;5.946;2022-07-12T08:57:51;98052.97;;;22.50;97.34
49311;BME280;35177;45.900;5.946;2022-07-12T09:00:17;98055.41;;;22.51;98.70
49311;BME280;35177;45.900;5.946;2022-07-12T09:02:45;98050.50;;;22.44;95.93
49311;BME280;35177;45.900;5.946;2022-07-12T09:05:11;98055.06;;;22.56;97.79
49311;BME280;35177;45.900;5.946;2022-07-12T09:07:37;98063.66;;;22.63;96.14
49311;BME280;35177;45.900;5.946;2022-07-12T09:10:08;98062.19;;;22.77;100.00
49311;BME280;35177;45.900;5.946;2022-07-12T09:12:34;98060.25;;;22.81;95.79
49311;BME280;35177;45.900;5.946;2022-07-12T09:15:17;98054.69;;;22.92;90.52
49311;BME280;35177;45.900;5.946;2022-07-12T09:17:54;98072.94;;;22.98;91.17
49311;BME280;35177;45.900;5.946;2022-07-12T09:20:22;98059.88;;;23.17;99.53
49311;BME280;35177;45.900;5.946;2022-07-12T09:22:54;98068.13;;;23.36;88.70
49311;BME280;35177;45.900;5.946;2022-07-12T09:25:20;98065.72;;;23.38;86.15
49311;BME280;35177;45.900;5.946;2022-07-12T09:27:57;98052.94;;;23.55;88.03
49311;BME280;35177;45.900;5.946;2022-07-12T09:30:24;98057.91;;;23.69;82.44
49311;BME280;35177;45.900;5.946;2022-07-12T09:33:01;98063.41;;;23.96;89.54
49311;BME280;35177;45.900;5.946;2022-07-12T09:41:02;98047.97;;;24.64;83.43
49311;BME280;35177;45.900;5.946;2022-07-12T09:43:28;98046.41;;;24.74;80.99
49311;BME280;35177;45.900;5.946;2022-07-12T09:45:54;98054.59;;;24.97;82.82
49311;BME280;35177;45.900;5.946;2022-07-12T09:48:20;98053.00;;;25.07;76.25
49311;BME280;35177;45.900;5.946;2022-07-12T09:50:51;98055.94;;;25.36;76.69
49311;BME280;35177;45.900;5.946;2022-07-12T09:53:22;98058.75;;;25.28;75.65
49311;BME280;35177;45.900;5.946;2022-07-12T09:55:52;98058.41;;;25.55;73.31
49311;BME280;35177;45.900;5.946;2022-07-12T09:58:22;98054.75;;;25.84;64.77
49311;BME280;35177;45.900;5.946;2022-07-12T10:00:51;98048.63;;;26.14;65.62
49311;BME280;35177;45.900;5.946;2022-07-12T10:03:20;98060.69;;;26.69;62.88
49311;BME280;35177;45.900;5.946;2022-07-12T10:05:46;98061.84;;;26.93;66.14
49311;BME280;35177;45.900;5.946;2022-07-12T10:08:12;98044.50;;;26.48;62.34
49311;BME280;35177;45.900;5.946;2022-07-12T10:10:38;98051.31;;;26.79;62.31
49311;BME280;35177;45.900;5.946;2022-07-12T10:13:04;98046.31;;;27.65;59.59
49311;BME280;35177;45.900;5.946;2022-07-12T10:15:30;98037.03;;;28.02;60.31
49311;BME280;35177;45.900;5.946;2022-07-12T10:18:00;98036.81;;;27.82;50.69
49311;BME280;35177;45.900;5.946;2022-07-12T10:20:26;98038.16;;;27.67;53.82
49311;BME280;35177;45.900;5.946;2022-07-12T10:25:42;98033.84;;;28.35;52.97
49311;BME280;35177;45.900;5.946;2022-07-12T10:28:08;98034.38;;;28.26;50.18
49311;BME280;35177;45.900;5.946;2022-07-12T10:30:45;98043.97;;;28.01;50.53
49311;BME280;35177;45.900;5.946;2022-07-12T10:33:23;98048.81;;;28.08;51.91
49311;BME280;35177;45.900;5.946;2022-07-12T10:36:05;98047.63;;;28.05;48.37
49311;BME280;35177;45.900;5.946;2022-07-12T10:38:32;98038.28;;;28.78;55.99
49311;BME280;35177;45.900;5.946;2022-07-12T10:40:58;98045.03;;;28.57;47.50
49311;BME280;35177;45.900;5.946;2022-07-12T10:43:40;98039.88;;;29.10;46.13
49311;BME280;35177;45.900;5.946;2022-07-12T10:46:24;98049.00;;;28.70;47.28
49311;BME280;35177;45.900;5.946;2022-07-12T10:48:51;98042.88;;;28.68;47.42
49311;BME280;35177;45.900;5.946;2022-07-12T10:51:18;98044.03;;;28.74;46.72
49311;BME280;35177;45.900;5.946;2022-07-12T10:53:48;98042.78;;;29.06;50.76
49311;BME280;35177;45.900;5.946;2022-07-12T10:56:21;98041.59;;;29.35;43.97
49311;BME280;35177;45.900;5.946;2022-07-12T10:58:54;98040.59;;;29.48;45.87
49311;BME280;35177;45.900;5.946;2022-07-12T11:01:28;98027.72;;;29.84;40.89
49311;BME280;35177;45.900;5.946;2022-07-12T11:03:54;98036.00;;;29.78;44.62
49311;BME280;35177;45.900;5.946;2022-07-12T11:06:22;98029.41;;;29.81;47.63
49311;BME280;35177;45.900;5.946;2022-07-12T11:08:59;98037.81;;;29.92;42.37
49311;BME280;35177;45.900;5.946;2022-07-12T11:11:27;98028.88;;;30.34;39.21
49311;BME280;35177;45.900;5.946;2022-07-12T11:13:53;98031.34;;;30.12;44.99
49311;BME280;35177;45.900;5.946;2022-07-12T11:16:20;98033.75;;;30.13;40.33
49311;BME280;35177;45.900;5.946;2022-07-12T11:18:46;98030.59;;;30.08;43.97
49311;BME280;35177;45.900;5.946;2022-07-12T11:21:12;98027.94;;;30.41;41.03
49311;BME280;35177;45.900;5.946;2022-07-12T11:23:38;98017.28;;;29.97;38.87
49311;BME280;35177;45.900;5.946;2022-07-12T11:26:07;98035.00;;;29.65;43.16
49311;BME280;35177;45.900;5.946;2022-07-12T11:28:32;98026.38;;;30.36;41.33
49311;BME280;35177;45.900;5.946;2022-07-12T11:31:09;98030.63;;;30.28;38.47
49311;BME280;35177;45.900;5.946;2022-07-12T11:33:39;98020.88;;;30.45;38.64
49311;BME280;35177;45.900;5.946;2022-07-12T11:36:07;98011.94;;;30.64;40.45
49311;BME280;35177;45.900;5.946;2022-07-12T11:38:34;98017.69;;;30.84;39.14
49311;BME280;35177;45.900;5.946;2022-07-12T11:41:02;98029.13;;;30.64;37.59
49311;BME280;35177;45.900;5.946;2022-07-12T11:43:29;98019.75;;;30.63;37.50
49311;BME280;35177;45.900;5.946;2022-07-12T11:46:12;98021.31;;;30.24;37.88
49311;BME280;35177;45.900;5.946;2022-07-12T11:48:41;98012.28;;;30.45;39.04
49311;BME280;35177;45.900;5.946;2022-07-12T11:51:11;98005.25;;;30.50;35.53
49311;BME280;35177;45.900;5.946;2022-07-12T11:53:39;98013.69;;;30.77;37.44
49311;BME280;35177;45.900;5.946;2022-07-12T11:56:07;98012.38;;;30.82;36.04
49311;BME280;35177;45.900;5.946;2022-07-12T11:58:33;98008.06;;;30.54;37.74
49311;BME280;35177;45.900;5.946;2022-07-12T12:01:04;98013.88;;;31.07;35.38
49311;BME280;35177;45.900;5.946;2022-07-12T12:03:30;98004.66;;;30.59;37.43
49311;BME280;35177;45.900;5.946;2022-07-12T12:05:57;98002.75;;;30.92;36.92
49311;BME280;35177;45.900;5.946;2022-07-12T12:08:24;98008.75;;;31.18;36.97
49311;BME280;35177;45.900;5.946;2022-07-12T12:10:59;97992.84;;;30.77;37.29
49311;BME280;35177;45.900;5.946;2022-07-12T12:13:26;97995.25;;;31.35;34.74
49311;BME280;35177;45.900;5.946;2022-07-12T12:16:00;98000.72;;;31.96;34.09
49311;BME280;35177;45.900;5.946;2022-07-12T12:18:36;98000.16;;;31.18;36.05
49311;BME280;35177;45.900;5.946;2022-07-12T12:21:11;97992.03;;;31.13;34.93
49311;BME280;35177;45.900;5.946;2022-07-12T12:23:40;97986.50;;;31.22;36.77
49311;BME280;35177;45.900;5.946;2022-07-12T12:26:17;97974.25;;;31.38;36.72
49311;BME280;35177;45.900;5.946;2022-07-12T12:28:48;97977.47;;;31.57;33.62
49311;BME280;35177;45.900;5.946;2022-07-12T12:31:18;97980.53;;;31.33;34.09
49311;BME280;35177;45.900;5.946;2022-07-12T12:33:47;97973.34;;;31.58;33.46
49311;BME280;35177;45.900;5.946;2022-07-12T12:38:53;97968.22;;;31.99;34.59
49311;BME280;35177;45.900;5.946;2022-07-12T12:41:20;97961.75;;;31.95;35.57
49311;BME280;35177;45.900;5.946;2022-07-12T12:44:02;97970.00;;;31.93;37.05
49311;BME280;35177;45.900;5.946;2022-07-12T12:46:54;97963.50;;;31.59;37.02
49311;BME280;35177;45.900;5.946;2022-07-12T12:49:49;97958.25;;;32.03;36.31
49311;BME280;35177;45.900;5.946;2022-07-12T12:52:15;97953.94;;;31.95;36.21
49311;BME280;35177;45.900;5.946;2022-07-12T12:54:41;97950.53;;;31.01;30.97
49311;BME280;35177;45.900;5.946;2022-07-12T12:57:07;97958.00;;;30.79;33.95
49311;BME280;35177;45.900;5.946;2022-07-12T12:59:35;97955.69;;;31.27;33.23
49311;BME280;35177;45.900;5.946;2022-07-12T13:02:02;97951.13;;;31.46;33.25
49311;BME280;35177;45.900;5.946;2022-07-12T13:04:29;97943.94;;;31.87;34.37
49311;BME280;35177;45.900;5.946;2022-07-12T13:06:54;97945.47;;;31.42;32.61